createdAt,value
2022-11-03T00:01:53.089Z,53.75
2022-11-03T00:04:19.986Z,55.04
2022-11-03T00:06:47.095Z,54.68
2022-11-03T00:09:14.042Z,55.86
2022-11-03T00:11:40.859Z,56.21
2022-11-03T00:14:07.204Z,55.29
2022-11-03T00:16:33.484Z,55.63
2022-11-03T00:18:59.747Z,55.56
2022-11-03T00:21:26.010Z,55.42
2022-11-03T00:23:52.280Z,54.95
2022-11-03T00:26:20.752Z,55.00
2022-11-03T00:28:47.876Z,53.93
2022-11-03T00:31:32.576Z,54.50
2022-11-03T00:33:59.030Z,54.43
2022-11-03T00:36:26.089Z,53.92
2022-11-03T00:38:52.476Z,54.27
2022-11-03T00:41:20.578Z,54.72
2022-11-03T00:43:46.849Z,54.27
2022-11-03T00:46:13.197Z,53.86
2022-11-03T00:48:39.525Z,54.26
2022-11-03T00:51:05.806Z,54.36
2022-11-03T00:53:32.551Z,55.61
2022-11-03T00:55:58.825Z,56.19
2022-11-03T00:58:25.098Z,55.67
2022-11-03T01:00:51.451Z,55.87
2022-11-03T01:03:17.766Z,54.60
2022-11-03T01:06:02.917Z,54.43
2022-11-03T01:08:33.069Z,54.58
2022-11-03T01:11:43.678Z,55.55
2022-11-03T01:14:10.497Z,56.20
2022-11-03T01:16:36.769Z,55.89
2022-11-03T01:19:03.047Z,56.34
2022-11-03T01:21:29.416Z,54.91
2022-11-03T01:23:55.741Z,54.38
2022-11-03T01:26:22.014Z,54.10
2022-11-03T01:28:48.321Z,53.87
2022-11-03T01:31:18.519Z,53.92
2022-11-03T01:33:47.488Z,53.33
2022-11-03T01:36:13.952Z,53.41
2022-11-03T01:38:40.245Z,54.01
2022-11-03T01:41:07.095Z,53.43
2022-11-03T01:43:33.381Z,53.23
2022-11-03T01:46:05.634Z,52.23
2022-11-03T01:48:31.909Z,52.68
2022-11-03T01:50:58.204Z,53.44
2022-11-03T01:53:24.488Z,53.71
2022-11-03T01:55:50.843Z,54.19
2022-11-03T01:58:18.287Z,55.15
2022-11-03T02:00:45.269Z,55.46
2022-11-03T02:03:11.620Z,53.90
2022-11-03T02:05:37.905Z,54.23
2022-11-03T02:08:05.672Z,54.74
2022-11-03T02:10:31.985Z,54.10
2022-11-03T02:12:58.271Z,53.57
2022-11-03T02:15:24.705Z,53.37
2022-11-03T02:17:51.236Z,53.13
2022-11-03T02:20:18.102Z,53.95
2022-11-03T02:22:44.347Z,54.18
2022-11-03T02:25:16.889Z,53.60
2022-11-03T02:27:43.170Z,53.07
2022-11-03T02:30:09.784Z,53.31
2022-11-03T02:32:44.472Z,53.24
2022-11-03T02:35:13.835Z,53.04
2022-11-03T02:37:41.177Z,51.71
2022-11-03T02:40:08.655Z,51.80
2022-11-03T02:42:35.492Z,52.22
2022-11-03T02:45:02.552Z,53.44
2022-11-03T02:47:28.920Z,53.99
2022-11-03T02:52:41.660Z,54.09
2022-11-03T02:55:12.439Z,53.64
2022-11-03T02:57:39.699Z,53.85
2022-11-03T03:00:06.383Z,53.08
2022-11-03T03:02:34.348Z,53.85
2022-11-03T03:05:01.635Z,52.87
2022-11-03T03:07:29.437Z,51.91
2022-11-03T03:10:02.805Z,52.11
2022-11-03T03:12:29.093Z,52.08
2022-11-03T03:14:55.357Z,51.52
2022-11-03T03:17:25.862Z,51.63
2022-11-03T03:20:02.670Z,50.60
2022-11-03T03:22:30.617Z,51.59
2022-11-03T03:25:01.273Z,50.72
2022-11-03T03:27:27.963Z,50.67
2022-11-03T03:30:01.679Z,51.22
2022-11-03T03:32:28.181Z,51.63
2022-11-03T03:34:54.499Z,51.67
2022-11-03T03:37:21.211Z,51.60
2022-11-03T03:39:48.439Z,51.42
2022-11-03T03:42:14.710Z,51.34
2022-11-03T03:44:41.355Z,51.41
2022-11-03T03:47:10.806Z,50.91
2022-11-03T03:49:37.066Z,51.29
2022-11-03T03:52:03.883Z,51.18
2022-11-03T03:54:30.168Z,50.83
2022-11-03T03:56:57.880Z,51.04
2022-11-03T03:59:24.207Z,51.37
2022-11-03T04:01:50.719Z,52.11
2022-11-03T04:04:17.102Z,52.11
2022-11-03T04:06:43.380Z,51.98
2022-11-03T04:09:09.722Z,51.12
2022-11-03T04:11:54.804Z,51.84
2022-11-03T04:14:39.657Z,51.68
2022-11-03T04:17:26.606Z,51.98
2022-11-03T04:20:11.529Z,51.72
2022-11-03T04:22:37.845Z,51.52
2022-11-03T04:25:04.229Z,51.16
2022-11-03T04:27:30.498Z,51.26
2022-11-03T04:30:00.173Z,50.56
2022-11-03T04:32:26.443Z,50.57
2022-11-03T04:34:52.751Z,50.75
2022-11-03T04:37:19.048Z,51.27
2022-11-03T04:42:19.793Z,51.34
2022-11-03T04:44:49.252Z,51.83
2022-11-03T04:47:15.914Z,51.28
2022-11-03T04:49:42.570Z,51.07
2022-11-03T04:52:16.449Z,50.87
2022-11-03T04:54:42.784Z,51.56
2022-11-03T04:57:10.504Z,51.26
2022-11-03T04:59:36.837Z,51.21
2022-11-03T05:02:03.673Z,52.36
2022-11-03T05:04:30.074Z,51.84
2022-11-03T05:06:56.337Z,50.96
2022-11-03T05:09:29.339Z,50.71
2022-11-03T05:11:55.619Z,50.50
2022-11-03T05:14:21.917Z,51.16
2022-11-03T05:16:48.460Z,51.15
2022-11-03T05:19:15.649Z,51.18
2022-11-03T05:21:41.974Z,51.22
2022-11-03T05:24:11.780Z,51.12
2022-11-03T05:26:38.076Z,50.95
2022-11-03T05:29:09.453Z,51.26
2022-11-03T05:31:35.736Z,50.87
2022-11-03T05:34:02.689Z,50.13
2022-11-03T05:36:30.291Z,50.41
2022-11-03T05:38:58.625Z,50.64
2022-11-03T05:41:25.285Z,49.71
2022-11-03T05:43:59.159Z,50.52
2022-11-03T05:46:29.406Z,51.14
2022-11-03T05:48:55.675Z,51.56
2022-11-03T05:51:22.812Z,49.90
2022-11-03T05:53:50.490Z,50.53
2022-11-03T05:56:18.248Z,49.58
2022-11-03T05:58:44.604Z,51.19
2022-11-03T06:01:26.483Z,50.71
2022-11-03T06:03:52.967Z,51.05
2022-11-03T06:06:21.007Z,50.22
2022-11-03T06:08:47.295Z,50.58
2022-11-03T06:11:16.182Z,51.12
2022-11-03T06:13:42.472Z,51.33
2022-11-03T06:16:11.833Z,50.32
2022-11-03T06:18:38.337Z,49.60
2022-11-03T06:21:08.362Z,49.46
2022-11-03T06:23:34.850Z,49.31
2022-11-03T06:26:02.489Z,49.14
2022-11-03T06:28:37.867Z,50.67
2022-11-03T06:31:14.379Z,51.22
2022-11-03T06:33:42.244Z,49.95
2022-11-03T06:36:13.339Z,50.38
2022-11-03T06:38:39.664Z,49.25
2022-11-03T06:41:07.537Z,49.77
2022-11-03T06:43:40.642Z,49.55
2022-11-03T06:46:20.349Z,47.77
2022-11-03T06:48:46.630Z,49.35
2022-11-03T06:51:20.023Z,48.93
2022-11-03T06:53:46.373Z,48.99
2022-11-03T06:56:13.072Z,48.70
2022-11-03T06:58:39.342Z,47.75
2022-11-03T07:01:15.964Z,48.08
2022-11-03T07:03:42.334Z,48.35
2022-11-03T07:06:13.822Z,48.35
2022-11-03T07:08:43.639Z,48.35
2022-11-03T07:11:17.235Z,48.00
2022-11-03T07:13:43.554Z,47.35
2022-11-03T07:16:28.344Z,48.09
2022-11-03T07:18:54.637Z,47.93
2022-11-03T07:21:37.959Z,47.87
2022-11-03T07:24:12.815Z,47.89
2022-11-03T07:26:39.086Z,47.73
2022-11-03T07:29:05.355Z,48.22
2022-11-03T07:31:31.663Z,48.02
2022-11-03T07:33:58.588Z,47.92
2022-11-03T07:36:25.861Z,47.46
2022-11-03T07:38:52.653Z,47.14
2022-11-03T07:41:22.776Z,47.85
2022-11-03T07:43:58.669Z,49.23
2022-11-03T07:46:25.155Z,49.16
2022-11-03T07:48:57.920Z,46.10
2022-11-03T07:51:29.637Z,46.13
2022-11-03T07:53:58.909Z,47.47
2022-11-03T07:56:25.939Z,46.84
2022-11-03T07:58:54.087Z,46.58
2022-11-03T08:01:24.846Z,47.78
2022-11-03T08:03:51.369Z,48.73
2022-11-03T08:06:19.902Z,47.76
2022-11-03T08:08:46.505Z,48.65
2022-11-03T08:13:43.979Z,46.97
2022-11-03T08:16:10.259Z,46.03
2022-11-03T08:18:37.055Z,46.55
2022-11-03T08:21:03.323Z,46.61
2022-11-03T08:23:29.997Z,45.83
2022-11-03T08:25:56.802Z,45.73
2022-11-03T08:28:23.208Z,45.25
2022-11-03T08:30:49.622Z,44.32
2022-11-03T08:33:15.971Z,46.86
2022-11-03T08:35:42.409Z,46.60
2022-11-03T08:38:09.137Z,45.95
2022-11-03T08:40:35.629Z,46.97
2022-11-03T08:43:03.018Z,44.50
2022-11-03T08:45:29.926Z,44.27
2022-11-03T08:47:56.340Z,45.27
2022-11-03T08:50:22.677Z,45.11
2022-11-03T08:52:49.461Z,45.97
2022-11-03T08:55:15.739Z,47.45
2022-11-03T08:57:42.016Z,47.70
2022-11-03T09:00:08.562Z,45.29
2022-11-03T09:02:34.876Z,45.30
2022-11-03T09:05:01.194Z,43.83
2022-11-03T09:12:43.023Z,44.39
2022-11-03T09:15:09.531Z,42.86
2022-11-03T09:17:35.822Z,42.26
2022-11-03T09:20:02.143Z,41.78
2022-11-03T09:22:28.494Z,42.23
2022-11-03T09:24:54.803Z,41.44
2022-11-03T09:27:21.137Z,41.14
2022-11-03T09:30:11.768Z,40.88
2022-11-03T09:32:34.259Z,40.18
2022-11-03T09:35:00.532Z,41.35
2022-11-03T09:37:27.472Z,44.00
2022-11-03T09:39:53.842Z,41.70
2022-11-03T09:42:20.135Z,41.31
2022-11-03T09:44:47.666Z,41.93
2022-11-03T09:47:16.954Z,42.45
2022-11-03T09:49:43.360Z,42.41
2022-11-03T09:52:09.634Z,43.66
2022-11-03T09:54:35.912Z,43.95
2022-11-03T09:57:05.550Z,42.07
2022-11-03T09:59:31.896Z,44.12
2022-11-03T10:01:58.239Z,45.05
2022-11-03T10:04:27.908Z,41.05
2022-11-03T10:06:54.846Z,41.97
2022-11-03T10:09:23.080Z,40.65
2022-11-03T10:11:49.599Z,41.67
2022-11-03T10:14:16.099Z,43.44
2022-11-03T10:16:42.673Z,42.85
2022-11-03T10:19:18.198Z,43.35
2022-11-03T10:21:44.451Z,44.78
2022-11-03T10:24:11.404Z,41.56
2022-11-03T10:26:44.933Z,41.76
2022-11-03T10:31:54.381Z,40.84
2022-11-03T10:34:37.350Z,41.03
2022-11-03T10:37:22.448Z,41.81
2022-11-03T10:39:49.383Z,40.97
2022-11-03T10:42:16.534Z,41.98
2022-11-03T10:44:42.802Z,42.24
2022-11-03T10:47:09.723Z,43.96
2022-11-03T10:49:43.678Z,40.32
2022-11-03T10:52:20.891Z,41.44
2022-11-03T10:54:47.391Z,41.77
2022-11-03T10:57:13.661Z,40.86
2022-11-03T10:59:40.027Z,41.70
2022-11-03T11:02:14.029Z,41.85
2022-11-03T11:04:40.389Z,41.46
2022-11-03T11:07:27.078Z,40.39
2022-11-03T11:09:53.852Z,39.80
2022-11-03T11:12:23.687Z,40.05
2022-11-03T11:14:56.926Z,40.95
2022-11-03T11:17:39.125Z,40.19
2022-11-03T11:20:18.177Z,39.83
2022-11-03T11:22:44.943Z,41.95
2022-11-03T11:25:11.205Z,43.05
2022-11-03T11:27:43.608Z,43.62
2022-11-03T11:30:19.077Z,42.94
2022-11-03T11:32:45.315Z,43.68
2022-11-03T11:35:12.301Z,42.96
2022-11-03T11:37:38.640Z,40.66
2022-11-03T11:40:11.936Z,41.23
2022-11-03T11:42:58.480Z,39.21
2022-11-03T11:45:43.503Z,38.33
2022-11-03T11:48:18.852Z,41.66
2022-11-03T11:50:45.723Z,41.79
2022-11-03T11:53:18.528Z,41.57
2022-11-03T11:55:51.990Z,42.54
2022-11-03T11:58:19.395Z,41.31
2022-11-03T12:00:57.728Z,40.24
2022-11-03T12:03:25.802Z,41.65
2022-11-03T12:05:52.117Z,41.74
2022-11-03T12:08:18.864Z,42.74
2022-11-03T12:10:54.559Z,41.95
2022-11-03T12:13:35.933Z,41.45
2022-11-03T12:16:02.210Z,40.74
2022-11-03T12:18:36.551Z,40.03
2022-11-03T12:21:14.554Z,39.89
2022-11-03T12:23:44.365Z,39.41
2022-11-03T12:26:36.930Z,39.38
2022-11-03T12:29:05.188Z,40.79
2022-11-03T12:31:34.374Z,39.47
2022-11-03T12:34:03.229Z,38.52
2022-11-03T12:36:29.499Z,39.96
2022-11-03T12:38:55.796Z,41.04
2022-11-03T12:41:22.124Z,41.51
2022-11-03T12:43:48.769Z,40.24
2022-11-03T12:46:15.896Z,39.36
2022-11-03T12:48:43.939Z,43.19
2022-11-03T12:51:23.408Z,41.31
2022-11-03T12:53:49.932Z,40.91
2022-11-03T12:56:16.299Z,43.38
2022-11-03T12:58:42.575Z,39.75
2022-11-03T13:01:08.946Z,40.60
2022-11-03T13:03:35.371Z,40.25
2022-11-03T13:06:04.258Z,39.98
2022-11-03T13:08:33.496Z,39.49
2022-11-03T13:10:59.771Z,40.38
2022-11-03T13:13:26.847Z,42.09
2022-11-03T13:15:53.220Z,43.88
2022-11-03T13:18:20.275Z,44.17
2022-11-03T13:20:46.598Z,42.79
2022-11-03T13:23:13.700Z,38.17
2022-11-03T13:25:41.511Z,40.06
2022-11-03T13:28:07.847Z,40.66
2022-11-03T13:30:34.120Z,40.17
2022-11-03T13:33:00.397Z,40.85
2022-11-03T13:35:26.671Z,41.93
2022-11-03T13:37:52.947Z,41.01
2022-11-03T13:40:42.770Z,41.09
2022-11-03T13:43:05.906Z,41.09
2022-11-03T13:45:32.532Z,40.06
2022-11-03T13:50:51.778Z,40.71
2022-11-03T13:56:07.825Z,40.17
2022-11-03T14:01:23.155Z,38.98
2022-11-03T14:06:36.035Z,36.70
2022-11-03T14:09:02.696Z,40.92
2022-11-03T14:11:47.421Z,37.81
2022-11-03T14:14:13.709Z,39.96
2022-11-03T14:16:40.084Z,42.53
2022-11-03T14:19:06.384Z,41.69
2022-11-03T14:21:32.932Z,44.38
2022-11-03T14:23:59.234Z,42.79
2022-11-03T14:26:41.737Z,41.38
2022-11-03T14:29:08.378Z,39.88
2022-11-03T14:31:34.763Z,39.44
2022-11-03T14:34:01.640Z,39.23
2022-11-03T14:36:27.914Z,38.91
2022-11-03T14:38:54.244Z,38.28
2022-11-03T14:41:39.329Z,38.84
2022-11-03T14:44:06.135Z,39.68
2022-11-03T14:46:32.465Z,39.51
2022-11-03T14:48:58.778Z,38.63
2022-11-03T14:51:25.128Z,39.96
2022-11-03T14:53:51.499Z,40.10
2022-11-03T14:56:17.780Z,40.39
2022-11-03T14:58:44.051Z,40.57
2022-11-03T15:01:10.426Z,40.88
2022-11-03T15:03:36.814Z,40.57
2022-11-03T15:06:03.094Z,40.58
2022-11-03T15:08:30.883Z,41.00
2022-11-03T15:10:57.139Z,40.20
2022-11-03T15:13:23.427Z,42.06
2022-11-03T15:15:49.696Z,41.24
2022-11-03T15:18:16.439Z,41.14
2022-11-03T15:20:42.747Z,41.53
2022-11-03T15:25:55.683Z,40.72
2022-11-03T15:28:22.051Z,40.05
2022-11-03T15:30:49.166Z,40.35
2022-11-03T15:33:15.987Z,40.46
2022-11-03T15:35:42.344Z,39.94
2022-11-03T15:38:09.029Z,40.52
2022-11-03T15:40:35.480Z,40.47
2022-11-03T15:43:03.111Z,40.83
2022-11-03T15:45:29.600Z,41.09
2022-11-03T15:47:58.365Z,40.33
2022-11-03T15:50:25.873Z,39.23
2022-11-03T15:52:52.513Z,40.50
2022-11-03T15:55:19.068Z,41.35
2022-11-03T15:57:45.350Z,42.10
2022-11-03T16:00:11.933Z,41.67
2022-11-03T16:02:41.800Z,42.57
2022-11-03T16:05:09.004Z,43.19
2022-11-03T16:07:35.275Z,43.83
2022-11-03T16:10:01.633Z,46.07
2022-11-03T16:12:28.003Z,45.28
2022-11-03T16:14:54.294Z,46.61
2022-11-03T16:17:22.751Z,48.28
2022-11-03T16:19:49.194Z,49.96
2022-11-03T16:22:15.548Z,50.76
2022-11-03T16:24:44.055Z,51.01
2022-11-03T16:27:10.397Z,51.66
2022-11-03T16:29:36.664Z,52.80
2022-11-03T16:32:02.927Z,54.18
2022-11-03T16:34:29.203Z,55.19
2022-11-03T16:36:56.209Z,55.05
2022-11-03T16:39:22.647Z,54.29
2022-11-03T16:41:48.962Z,54.55
2022-11-03T16:44:15.257Z,53.54
2022-11-03T16:46:41.521Z,52.83
2022-11-03T16:49:07.782Z,52.57
2022-11-03T16:51:34.066Z,52.75
2022-11-03T16:54:00.441Z,52.59
2022-11-03T16:56:26.722Z,52.40
2022-11-03T16:58:52.999Z,51.75
2022-11-03T17:01:19.352Z,51.92
2022-11-03T17:03:45.703Z,52.22
2022-11-03T17:06:12.042Z,52.01
2022-11-03T17:08:52.325Z,52.07
2022-11-03T17:11:37.930Z,52.44
2022-11-03T17:14:04.800Z,53.24
2022-11-03T17:16:31.093Z,52.91
2022-11-03T17:18:58.357Z,53.25
2022-11-03T17:21:27.627Z,52.33
2022-11-03T17:23:53.879Z,52.94
2022-11-03T17:26:21.214Z,52.61
2022-11-03T17:28:47.554Z,53.36
2022-11-03T17:31:13.838Z,52.24
2022-11-03T17:33:40.140Z,52.44
2022-11-03T17:36:06.526Z,50.80
2022-11-03T17:38:32.802Z,50.94
2022-11-03T17:40:59.167Z,51.04
2022-11-03T17:43:27.025Z,51.12
2022-11-03T17:45:53.623Z,50.94
2022-11-03T17:48:20.189Z,50.62
2022-11-03T17:50:47.526Z,51.40
2022-11-03T17:53:21.225Z,51.05
2022-11-03T17:56:02.908Z,51.71
2022-11-03T17:58:34.101Z,51.72
2022-11-03T18:01:00.536Z,52.62
2022-11-03T18:03:27.375Z,52.73
2022-11-03T18:05:53.961Z,52.55
2022-11-03T18:08:21.044Z,53.02
2022-11-03T18:10:48.103Z,52.93
2022-11-03T18:13:21.246Z,53.32
2022-11-03T18:15:49.204Z,52.67
2022-11-03T18:18:21.841Z,52.36
2022-11-03T18:20:53.209Z,52.96
2022-11-03T18:23:23.970Z,52.08
2022-11-03T18:25:50.405Z,51.44
2022-11-03T18:28:16.733Z,51.31
2022-11-03T18:30:43.720Z,51.27
2022-11-03T18:33:23.520Z,52.25
2022-11-03T18:35:49.899Z,53.54
2022-11-03T18:38:16.177Z,53.91
2022-11-03T18:40:42.929Z,54.61
2022-11-03T18:43:12.788Z,55.28
2022-11-03T18:45:39.110Z,55.29
2022-11-03T18:48:05.541Z,54.77
2022-11-03T18:50:31.872Z,54.96
2022-11-03T18:52:58.154Z,55.71
2022-11-03T18:55:24.442Z,55.58
2022-11-03T18:57:51.278Z,55.13
2022-11-03T19:00:18.900Z,55.50
2022-11-03T19:02:45.270Z,54.20
2022-11-03T19:05:14.830Z,54.25
2022-11-03T19:07:41.413Z,54.69
2022-11-03T19:10:08.233Z,54.63
2022-11-03T19:12:38.842Z,54.15
2022-11-03T19:15:06.022Z,53.81
2022-11-03T19:17:32.821Z,53.83
2022-11-03T19:19:59.091Z,54.42
2022-11-03T19:22:26.198Z,54.26
2022-11-03T19:24:52.473Z,53.83
2022-11-03T19:27:25.736Z,53.97
2022-11-03T19:29:52.068Z,53.39
2022-11-03T19:32:25.040Z,54.21
2022-11-03T19:34:53.765Z,54.94
2022-11-03T19:37:20.043Z,55.41
2022-11-03T19:39:47.254Z,55.51
2022-11-03T19:42:29.442Z,54.62
2022-11-03T19:44:56.308Z,54.25
2022-11-03T19:47:23.708Z,54.63
2022-11-03T19:49:51.334Z,54.56
2022-11-03T19:52:17.613Z,53.72
2022-11-03T19:54:45.664Z,54.10
2022-11-03T19:57:12.127Z,53.28
2022-11-03T19:59:38.474Z,54.27
2022-11-03T20:02:04.800Z,54.65
2022-11-03T20:04:31.185Z,53.57
2022-11-03T20:06:57.459Z,54.19
2022-11-03T20:09:24.753Z,53.78
2022-11-03T20:11:51.482Z,54.53
2022-11-03T20:14:19.598Z,55.38
2022-11-03T20:16:45.942Z,55.00
2022-11-03T20:19:12.309Z,55.32
2022-11-03T20:21:39.004Z,54.80
2022-11-03T20:24:05.378Z,55.36
2022-11-03T20:26:31.640Z,54.97
2022-11-03T20:28:58.031Z,55.49
2022-11-03T20:31:24.298Z,55.99
2022-11-03T20:33:50.810Z,55.60
2022-11-03T20:36:18.010Z,56.09
2022-11-03T20:38:46.102Z,56.74
2022-11-03T20:41:15.440Z,57.14
2022-11-03T20:43:42.572Z,57.30
2022-11-03T20:46:14.991Z,57.51
2022-11-03T20:48:41.258Z,57.41
2022-11-03T20:51:07.538Z,58.33
2022-11-03T20:53:34.356Z,57.27
2022-11-03T20:56:00.634Z,56.30
2022-11-03T20:58:26.992Z,57.71
2022-11-03T21:00:53.293Z,56.85
2022-11-03T21:03:53.549Z,57.28
2022-11-03T21:06:14.729Z,58.67
2022-11-03T21:08:41.031Z,59.34
2022-11-03T21:11:23.139Z,59.27
2022-11-03T21:13:53.227Z,58.78
2022-11-03T21:16:38.059Z,59.12
2022-11-03T21:19:41.536Z,58.21
2022-11-03T21:22:30.933Z,58.28
2022-11-03T21:25:00.933Z,58.35
2022-11-03T21:27:27.228Z,58.14
2022-11-03T21:29:59.344Z,59.07
2022-11-03T21:32:26.205Z,59.11
2022-11-03T21:34:52.507Z,60.54
2022-11-03T21:37:18.797Z,60.86
2022-11-03T21:39:45.165Z,61.13
2022-11-03T21:42:30.808Z,62.67
2022-11-03T21:44:57.254Z,63.53
2022-11-03T21:47:23.514Z,64.21
2022-11-03T21:49:49.919Z,64.09
2022-11-03T21:52:17.252Z,64.04
2022-11-03T21:54:43.712Z,63.79
2022-11-03T21:57:10.732Z,63.74
2022-11-03T21:59:37.022Z,63.34
2022-11-03T22:02:03.614Z,63.24
2022-11-03T22:04:30.073Z,62.45
2022-11-03T22:06:56.749Z,62.08
2022-11-03T22:09:23.577Z,61.19
2022-11-03T22:11:50.039Z,61.34
2022-11-03T22:14:16.358Z,60.98
2022-11-03T22:16:44.186Z,60.59
2022-11-03T22:19:32.647Z,60.51
2022-11-03T22:22:17.868Z,59.69
2022-11-03T22:25:02.822Z,59.63
2022-11-03T22:27:29.604Z,59.27
2022-11-03T22:30:14.527Z,57.84
2022-11-03T22:32:40.809Z,57.25
2022-11-03T22:35:26.161Z,60.78
2022-11-03T22:38:11.821Z,60.21
2022-11-03T22:40:57.001Z,60.18
2022-11-03T22:43:42.004Z,59.97
2022-11-03T22:46:08.660Z,59.80
2022-11-03T22:48:34.992Z,59.85
2022-11-03T22:51:02.237Z,59.48
2022-11-03T22:53:47.809Z,59.62
2022-11-03T22:56:14.203Z,59.03
2022-11-03T22:58:40.549Z,59.18
2022-11-03T23:01:08.164Z,59.41
2022-11-03T23:03:34.998Z,59.24
2022-11-03T23:06:02.076Z,59.89
2022-11-03T23:08:29.339Z,58.94
2022-11-03T23:10:55.619Z,58.11
2022-11-03T23:13:21.994Z,58.72
2022-11-03T23:15:48.322Z,58.87
2022-11-03T23:18:33.384Z,59.23
2022-11-03T23:21:08.474Z,57.55
2022-11-03T23:23:53.519Z,57.80
2022-11-03T23:26:19.919Z,58.89
2022-11-03T23:28:46.227Z,59.63
2022-11-03T23:31:12.757Z,60.57
2022-11-03T23:33:39.184Z,59.93
2022-11-03T23:36:06.117Z,59.98
2022-11-03T23:38:33.213Z,59.53
2022-11-03T23:41:18.374Z,58.81
2022-11-03T23:43:44.776Z,59.16
2022-11-03T23:46:33.368Z,60.36
2022-11-03T23:48:59.689Z,60.64
2022-11-03T23:51:26.810Z,61.90
2022-11-03T23:53:53.372Z,61.08
2022-11-03T23:56:39.087Z,59.89
2022-11-03T23:59:05.579Z,60.50
